Time;durP1;ratioP1;P1;durP2;ratioP2;P2;SDS_P1;SDS_P2;PMS_P1;PMS_P2;Temp;Humidity;BMP_temperature;BMP_pressure;BME280_temperature;BME280_humidity;BME280_pressure;Samples;Min_cycle;Max_cycle;Signal;HPM_P1;HPM_P2
2022/09/02 00:02:38;;;;;;;1.20;0.80;;;;;;;12.89;59.80;100062.56;441322;1271;142885;-60
2022/09/02 00:12:44;;;;;;;1.50;0.50;;;;;;;12.79;59.88;100057.42;447570;1269;184004;-59
2022/09/02 00:22:50;;;;;;;2.70;0.70;;;;;;;12.72;59.96;100056.77;446862;1271;143125;-60
2022/09/02 00:32:56;;;;;;;1.80;1.00;;;;;;;12.65;59.96;100056.40;447619;1269;144054;-59
2022/09/02 00:43:04;;;;;;;3.60;1.70;;;;;;;12.53;60.12;100054.31;434723;1271;142497;-60
2022/09/02 00:53:13;;;;;;;0.80;0.80;;;;;;;12.35;60.41;100047.98;442456;1271;144966;-59
2022/09/02 01:03:22;;;;;;;2.70;1.30;;;;;;;12.12;60.90;100056.45;442048;1271;142258;-59
2022/09/02 01:13:30;;;;;;;2.40;1.00;;;;;;;11.86;61.50;100058.47;443417;1271;202382;-59
2022/09/02 01:23:35;;;;;;;;;;;;;;;11.58;62.13;100059.47;431370;1271;143410;-59
2022/09/02 01:33:41;;;;;;;1.50;1.20;;;;;;;11.24;62.95;100061.18;447881;1271;129799;-60
2022/09/02 01:43:49;;;;;;;1.60;1.00;;;;;;;10.96;63.38;100070.67;446855;1271;161978;-59
2022/09/02 01:53:55;;;;;;;2.90;1.30;;;;;;;10.72;64.11;100066.40;443807;1271;144193;-59
2022/09/02 02:04:02;;;;;;;2.30;1.10;;;;;;;10.55;64.67;100066.52;447753;1271;143583;-58
2022/09/02 02:14:09;;;;;;;3.80;1.10;;;;;;;10.40;64.99;100056.46;446811;1271;143358;-59
2022/09/02 02:24:14;;;;;;;1.40;1.10;;;;;;;10.30;65.00;100053.66;447575;1271;142858;-59
2022/09/02 02:34:21;;;;;;;2.10;1.40;;;;;;;10.19;65.40;100053.95;447568;1271;144368;-59
2022/09/02 02:44:28;;;;;;;1.90;1.10;;;;;;;10.07;65.34;100049.13;443011;1271;143490;-59
2022/09/02 02:54:34;;;;;;;4.00;1.30;;;;;;;10.00;65.32;100045.16;447501;1271;146310;-58
2022/09/02 03:04:41;;;;;;;1.30;1.00;;;;;;;9.91;65.20;100048.45;442620;1271;143524;-60
2022/09/02 03:14:47;;;;;;;1.70;1.20;;;;;;;9.85;65.00;100051.20;447373;1270;143732;-59
2022/09/02 03:24:53;;;;;;;1.40;0.70;;;;;;;9.86;64.64;100054.67;437179;1269;142204;-59
2022/09/02 03:35:00;;;;;;;1.60;0.90;;;;;;;9.83;64.67;100040.31;446751;1271;143208;-59
2022/09/02 03:45:09;;;;;;;0.90;0.70;;;;;;;9.76;64.73;100048.52;446486;1271;142788;-59
2022/09/02 03:55:17;;;;;;;2.30;1.00;;;;;;;9.66;64.85;100056.20;436906;1271;146538;-59
2022/09/02 04:05:23;;;;;;;2.60;1.10;;;;;;;9.64;65.13;100065.44;446794;1271;142618;-59
2022/09/02 04:15:29;;;;;;;2.40;0.90;;;;;;;9.71;65.26;100069.94;447209;1270;142571;-59
2022/09/02 04:25:38;;;;;;;3.60;1.80;;;;;;;9.82;65.10;100071.45;437760;1272;141845;-60
2022/09/02 04:35:45;;;;;;;2.30;1.70;;;;;;;9.91;64.88;100069.25;441673;1271;201227;-59
2022/09/02 04:45:51;;;;;;;2.00;1.00;;;;;;;10.09;64.74;100072.14;429699;1271;198615;-59
2022/09/02 04:55:57;;;;;;;1.40;0.90;;;;;;;10.31;64.21;100081.80;431869;1271;144331;-59
2022/09/02 05:06:05;;;;;;;2.60;1.50;;;;;;;10.59;63.76;100089.55;430427;1271;143319;-58
2022/09/02 05:16:14;;;;;;;1.00;0.60;;;;;;;11.12;63.11;100091.64;431611;1271;146224;-59
2022/09/02 05:26:20;;;;;;;3.70;1.30;;;;;;;14.94;59.76;100079.27;432333;1271;142949;-59
2022/09/02 05:36:27;;;;;;;2.30;1.10;;;;;;;23.27;50.52;100070.12;444081;1270;142526;-60
2022/09/02 05:46:33;;;;;;;7.50;1.00;;;;;;;28.88;40.83;100070.10;446966;1272;141720;-59
2022/09/02 05:56:41;;;;;;;5.30;1.10;;;;;;;31.39;33.62;100082.84;440205;1271;184790;-59
2022/09/02 06:06:50;;;;;;;1.80;0.70;;;;;;;33.90;30.90;100071.94;431593;1271;152633;-58
2022/09/02 06:16:57;;;;;;;2.00;1.20;;;;;;;36.95;27.83;100071.61;430551;1271;142005;-60
2022/09/02 06:27:03;;;;;;;3.10;1.00;;;;;;;37.90;23.96;100070.80;430347;1271;142667;-59
2022/09/02 06:37:08;;;;;;;3.10;0.70;;;;;;;38.81;23.03;100070.85;429225;1271;1506943;-56
2022/09/02 06:47:15;;;;;;;2.40;0.90;;;;;;;40.21;20.91;100076.28;431051;1271;142377;-57
2022/09/02 06:57:21;;;;;;;1.90;1.00;;;;;;;38.60;19.93;100077.50;431744;1271;141520;-58
2022/09/02 07:07:39;;;;;;;1.20;0.80;;;;;;;39.70;19.28;100085.27;430974;1269;141254;-58
2022/09/02 07:17:44;;;;;;;1.60;1.30;;;;;;;41.70;18.10;100091.72;431170;1271;141528;-61
2022/09/02 07:27:51;;;;;;;2.20;0.70;;;;;;;42.25;17.15;100093.67;431122;1271;151576;-60
2022/09/02 07:37:56;;;;;;;3.20;1.00;;;;;;;43.19;16.71;100092.24;431778;1271;141683;-59
2022/09/02 07:48:05;;;;;;;2.30;1.40;;;;;;;44.14;15.77;100088.31;431576;1271;140794;-59
2022/09/02 07:58:12;;;;;;;2.60;1.00;;;;;;;44.24;15.30;100096.74;431363;1271;141974;-61
2022/09/02 08:08:21;;;;;;;3.50;1.70;;;;;;;42.99;14.78;100098.84;430204;1270;141879;-58
2022/09/02 08:18:27;;;;;;;2.20;1.40;;;;;;;44.31;14.79;100090.25;430696;1270;144488;-59
2022/09/02 08:28:33;;;;;;;1.20;1.10;;;;;;;43.70;13.82;100089.47;430321;1272;146231;-58
2022/09/02 08:38:39;;;;;;;2.10;0.80;;;;;;;40.49;14.86;100084.27;429857;1274;142102;-58
2022/09/02 08:48:51;;;;;;;0.80;0.80;;;;;;;31.80;18.62;100090.02;430507;1271;142920;-59
2022/09/02 08:58:59;;;;;;;2.30;0.80;;;;;;;27.26;22.40;100098.75;430487;1271;147626;-60
2022/09/02 09:09:14;;;;;;;1.00;0.50;;;;;;;24.86;24.72;100097.10;430578;1271;141268;-58
2022/09/02 09:19:36;;;;;;;1.20;0.50;;;;;;;23.34;26.53;100095.45;431158;1271;142062;-59
2022/09/02 09:29:42;;;;;;;3.90;1.20;;;;;;;22.39;28.20;100091.91;430313;1271;147058;-59
2022/09/02 09:39:48;;;;;;;0.80;0.40;;;;;;;21.34;29.34;100092.52;430406;1271;141226;-60
2022/09/02 09:50:11;;;;;;;1.00;0.30;;;;;;;20.10;31.24;100090.23;430605;1271;148184;-57
2022/09/02 10:00:22;;;;;;;0.70;0.50;;;;;;;20.55;31.81;100083.89;430555;1271;147254;-58
2022/09/02 10:10:31;;;;;;;2.30;0.60;;;;;;;20.23;32.02;100078.54;430659;1271;146587;-59
2022/09/02 10:20:49;;;;;;;1.30;0.70;;;;;;;20.18;32.78;100072.20;430214;1271;146951;-57
2022/09/02 10:31:25;;;;;;;0.70;0.40;;;;;;;19.94;33.16;100072.52;432362;1271;142209;-58
2022/09/02 10:41:44;;;;;;;1.10;0.50;;;;;;;19.56;34.03;100069.75;430845;1270;197152;-59
2022/09/02 10:52:04;;;;;;;1.50;0.40;;;;;;;19.47;34.56;100064.01;431228;1272;155387;-60
2022/09/02 11:02:16;;;;;;;0.40;0.40;;;;;;;19.53;34.53;100063.48;436289;1271;141275;-59
2022/09/02 11:12:28;;;;;;;1.30;0.30;;;;;;;19.68;34.20;100054.70;442985;1271;141783;-58
2022/09/02 11:22:41;;;;;;;1.10;0.40;;;;;;;19.56;33.93;100045.76;447583;1269;142478;-58
2022/09/02 11:32:55;;;;;;;1.10;0.30;;;;;;;19.68;33.81;100041.27;443171;1270;143174;-58
2022/09/02 11:43:18;;;;;;;0.90;0.40;;;;;;;19.70;33.90;100033.20;443878;1271;142361;-57
2022/09/02 11:53:30;;;;;;;1.00;0.40;;;;;;;19.80;34.69;100028.75;445220;1271;142299;-58
2022/09/02 12:03:36;;;;;;;1.90;1.40;;;;;;;20.14;33.94;100022.99;447649;1271;143597;-59
2022/09/02 12:14:02;;;;;;;0.70;0.30;;;;;;;20.37;33.99;100008.23;446693;1271;197485;-60
2022/09/02 12:24:24;;;;;;;1.70;0.30;;;;;;;20.06;34.62;100011.69;447639;1271;142322;-59
2022/09/02 12:34:55;;;;;;;1.70;0.40;;;;;;;19.49;35.32;100009.81;447618;1271;146124;-59
2022/09/02 12:45:13;;;;;;;2.20;0.40;;;;;;;18.80;35.76;100007.30;447673;1271;142274;-59
2022/09/02 12:55:25;;;;;;;0.70;0.50;;;;;;;18.85;36.36;100000.96;442081;1271;143244;-57
2022/09/02 13:05:40;;;;;;;1.10;0.40;;;;;;;18.90;36.44;99996.14;442406;1272;142266;-59
2022/09/02 13:16:02;;;;;;;1.70;0.30;;;;;;;19.25;35.97;99984.90;440718;1271;141918;-60
2022/09/02 13:26:35;;;;;;;1.30;0.40;;;;;;;18.77;36.81;99995.54;436988;1271;142161;-59
2022/09/02 13:36:54;;;;;;;1.60;0.30;;;;;;;18.25;37.83;99982.31;447732;1271;142574;-60
2022/09/02 13:47:04;;;;;;;0.40;0.30;;;;;;;18.50;37.78;99966.56;430658;1271;142569;-60
2022/09/02 13:57:14;;;;;;;0.90;0.40;;;;;;;18.75;37.02;99958.30;438033;1271;146541;-59
2022/09/02 14:07:30;;;;;;;1.90;0.40;;;;;;;19.09;36.85;99942.05;447393;1271;143963;-60
2022/09/02 14:17:35;;;;;;;0.30;0.30;;;;;;;18.87;37.31;99954.90;446891;1271;142082;-59
2022/09/02 14:27:47;;;;;;;1.60;0.20;;;;;;;18.47;37.68;99953.41;447701;1271;142817;-60
2022/09/02 14:37:56;;;;;;;1.40;0.60;;;;;;;18.38;38.17;99950.11;446719;1271;142880;-59
2022/09/02 14:48:11;;;;;;;0.30;0.30;;;;;;;18.43;38.46;99949.86;447570;1271;199859;-59
2022/09/02 14:58:19;;;;;;;2.50;0.50;;;;;;;18.24;38.67;99950.70;447544;1271;145722;-59
2022/09/02 15:08:29;;;;;;;1.10;0.60;;;;;;;17.98;39.39;99942.52;446794;1271;142646;-59
2022/09/02 15:18:35;;;;;;;0.60;0.40;;;;;;;17.94;39.49;99937.95;447515;1271;142836;-59
2022/09/02 15:28:41;;;;;;;1.50;0.50;;;;;;;18.08;39.43;99933.00;447364;1271;142256;-59
2022/09/02 15:38:47;;;;;;;1.60;0.80;;;;;;;18.19;39.53;99930.92;446698;1271;142314;-59
2022/09/02 15:48:53;;;;;;;1.40;0.40;;;;;;;18.06;39.36;99937.58;447620;1271;144450;-59
2022/09/02 15:59:09;;;;;;;3.30;1.00;;;;;;;17.81;39.29;99935.17;446888;1270;142073;-59
2022/09/02 16:09:16;;;;;;;1.00;0.50;;;;;;;17.56;39.27;99934.04;443270;1271;144064;-59
2022/09/02 16:19:23;;;;;;;1.10;0.50;;;;;;;17.19;39.65;99939.46;431702;1271;141838;-59
2022/09/02 16:29:29;;;;;;;1.50;0.40;;;;;;;16.91;40.20;99935.45;432250;1271;141805;-59
2022/09/02 16:39:35;;;;;;;3.90;0.40;;;;;;;16.79;40.82;99930.26;431332;1271;144159;-59
2022/09/02 16:49:41;;;;;;;3.00;0.30;;;;;;;16.64;41.47;99932.27;431591;1271;143713;-59
2022/09/02 16:59:48;;;;;;;0.80;0.50;;;;;;;16.41;41.81;99926.86;431445;1271;145163;-59
2022/09/02 17:09:54;;;;;;;1.60;0.50;;;;;;;16.15;42.07;99921.05;430173;1271;147740;-59
2022/09/02 17:20:00;;;;;;;4.50;1.20;;;;;;;15.84;42.70;99932.17;431253;1271;146498;-62
2022/09/02 17:30:09;;;;;;;1.80;1.00;;;;;;;15.54;43.13;99935.42;430628;1271;186073;-59
2022/09/02 17:50:39;;;;;;;7.60;1.90;;;;;;;14.89;44.39;99935.53;433484;1271;142949;-58
2022/09/02 18:00:45;;;;;;;3.60;1.20;;;;;;;14.60;44.86;99940.48;432401;1271;146732;-59
2022/09/02 18:10:53;;;;;;;3.50;1.20;;;;;;;14.38;45.52;99949.18;430393;1271;154794;-59
2022/09/02 18:21:09;;;;;;;1.90;1.00;;;;;;;14.19;46.17;99951.81;430879;1271;146833;-59
2022/09/02 18:31:29;;;;;;;2.70;1.50;;;;;;;13.97;46.57;99955.27;430536;1271;148074;-60
2022/09/02 18:41:45;;;;;;;2.60;1.30;;;;;;;13.82;46.64;99958.31;429805;1271;146837;-59
2022/09/02 18:51:55;;;;;;;5.30;2.00;;;;;;;13.64;46.70;99962.23;432017;1271;148712;-58
2022/09/02 19:02:11;;;;;;;3.80;1.30;;;;;;;13.56;46.82;99963.80;430581;1271;146286;-58
2022/09/02 19:12:17;;;;;;;2.70;1.20;;;;;;;13.47;46.95;99962.00;435074;1271;144941;-60
2022/09/02 19:22:27;;;;;;;3.80;1.30;;;;;;;13.38;46.90;99959.77;432291;1271;180331;-58
2022/09/02 19:32:36;;;;;;;1.70;0.80;;;;;;;13.33;47.30;99955.19;431004;1271;146390;-57
2022/09/02 19:42:42;;;;;;;1.40;1.10;;;;;;;13.28;47.70;99964.83;434384;1271;142153;-59
2022/09/02 19:52:49;;;;;;;1.10;0.90;;;;;;;13.24;48.29;99968.98;430744;1271;146872;-59
2022/09/02 20:02:55;;;;;;;5.40;1.30;;;;;;;13.23;48.88;99970.63;431202;1271;213539;-61
2022/09/02 20:13:02;;;;;;;1.00;0.60;;;;;;;13.17;49.06;99967.00;430967;1271;142532;-60
2022/09/02 20:23:08;;;;;;;1.20;0.90;;;;;;;13.07;49.39;99963.11;430531;1271;147419;-59
2022/09/02 20:33:22;;;;;;;2.00;1.00;;;;;;;12.94;49.72;99962.97;431075;1271;142117;-58
2022/09/02 20:43:50;;;;;;;1.70;0.80;;;;;;;12.84;50.10;99967.98;431114;1271;146535;-57
2022/09/02 20:54:14;;;;;;;5.40;1.70;;;;;;;12.79;50.37;99962.20;430879;1271;146895;-56
2022/09/02 21:04:34;;;;;;;4.40;1.10;;;;;;;12.65;50.85;99965.08;430896;1271;145982;-59
2022/09/02 21:14:45;;;;;;;2.20;0.90;;;;;;;12.59;51.23;99963.02;429965;1270;142964;-59
2022/09/02 21:24:56;;;;;;;2.40;0.80;;;;;;;12.53;51.43;99964.93;430861;1271;146243;-59
2022/09/02 21:35:08;;;;;;;1.80;1.30;;;;;;;12.43;51.77;99966.53;430346;1271;144511;-60
2022/09/02 21:45:20;;;;;;;1.60;1.00;;;;;;;12.34;52.33;99973.23;431098;1271;145789;-58
2022/09/02 21:55:39;;;;;;;5.60;1.60;;;;;;;12.22;52.90;99968.52;431662;1271;146426;-60
2022/09/02 22:05:54;;;;;;;2.00;1.20;;;;;;;12.13;53.49;99969.84;430019;1271;146901;-58
2022/09/02 22:16:15;;;;;;;3.00;1.50;;;;;;;11.94;54.03;99972.23;431346;1272;142273;-61
2022/09/02 22:26:40;;;;;;;2.80;1.00;;;;;;;11.75;54.54;99966.23;430293;1271;141768;-57
2022/09/02 22:36:55;;;;;;;1.30;1.00;;;;;;;11.63;55.02;99969.27;430986;1271;147978;-59
2022/09/02 22:57:38;;;;;;;1.70;1.10;;;;;;;11.45;55.65;99964.58;431209;1271;141001;-60
2022/09/02 23:07:44;;;;;;;2.30;1.00;;;;;;;11.36;55.91;99958.43;430986;1271;144956;-59
2022/09/02 23:18:00;;;;;;;4.60;1.50;;;;;;;11.35;56.01;99949.77;431953;1271;146412;-60
2022/09/02 23:28:15;;;;;;;3.30;1.70;;;;;;;11.29;56.13;99951.02;431437;1271;145746;-58
2022/09/02 23:38:43;;;;;;;3.20;1.30;;;;;;;11.29;56.13;99949.80;431472;1271;141997;-61
2022/09/02 23:49:04;;;;;;;1.40;1.20;;;;;;;11.24;56.16;99943.91;431457;1271;145651;-61
2022/09/02 23:59:28;;;;;;;2.20;1.60;;;;;;;11.22;56.20;99945.44;430795;1269;163428;-57
